createdAt,value
2016-05-29T00:00:44.698Z,0
2016-05-29T00:01:53.282Z,0
2016-05-29T00:02:44.563Z,0
2016-05-29T00:04:04.037Z,0
2016-05-29T00:04:46.321Z,0
2016-05-29T00:05:44.852Z,0
2016-05-29T00:06:57.404Z,0
2016-05-29T00:07:57.579Z,0
2016-05-29T00:09:10.473Z,0
2016-05-29T00:10:03.944Z,0
2016-05-29T00:10:44.928Z,0
2016-05-29T00:11:44.743Z,0
2016-05-29T00:12:44.980Z,0
2016-05-29T00:13:44.984Z,0
2016-05-29T00:14:45.033Z,0
2016-05-29T00:15:44.847Z,0
2016-05-29T00:16:45.038Z,0
2016-05-29T00:17:57.778Z,0
2016-05-29T00:18:57.828Z,0
2016-05-29T00:20:05.236Z,0
2016-05-29T00:20:45.674Z,0
2016-05-29T00:22:16.430Z,0
2016-05-29T00:23:04.088Z,0
2016-05-29T00:23:45.213Z,0
2016-05-29T00:25:10.875Z,0
2016-05-29T00:25:54.893Z,0
2016-05-29T00:26:54.865Z,0
2016-05-29T00:27:56.304Z,0
2016-05-29T00:28:57.916Z,0
2016-05-29T00:29:54.935Z,0
2016-05-29T00:30:56.063Z,0
2016-05-29T00:31:56.237Z,0
2016-05-29T00:32:55.006Z,0
2016-05-29T00:33:54.915Z,0
2016-05-29T00:34:56.449Z,0
2016-05-29T00:35:56.889Z,0
2016-05-29T00:36:55.095Z,0
2016-05-29T00:37:55.081Z,0
2016-05-29T00:38:55.100Z,0
2016-05-29T00:39:55.118Z,0
2016-05-29T00:41:14.371Z,0
2016-05-29T00:42:07.936Z,0
2016-05-29T00:43:57.786Z,0
2016-05-29T00:44:16.723Z,0
2016-05-29T00:45:10.491Z,0
2016-05-29T00:46:10.494Z,0
2016-05-29T00:47:10.528Z,0
2016-05-29T00:48:10.546Z,0
2016-05-29T00:49:10.392Z,0
2016-05-29T00:50:10.880Z,0
2016-05-29T00:51:12.022Z,0
2016-05-29T00:52:10.636Z,0
2016-05-29T00:53:13.591Z,0
2016-05-29T00:54:10.344Z,0
2016-05-29T00:55:10.674Z,0
2016-05-29T00:56:12.146Z,0
2016-05-29T00:57:23.445Z,0
2016-05-29T00:58:10.745Z,0
2016-05-29T00:59:10.607Z,0
2016-05-29T01:00:23.703Z,0
2016-05-29T01:01:10.800Z,0
2016-05-29T01:02:10.912Z,0
2016-05-29T01:03:13.883Z,0
2016-05-29T01:04:10.948Z,0
2016-05-29T01:05:23.467Z,0
2016-05-29T01:06:12.907Z,0
2016-05-29T01:07:10.754Z,0
2016-05-29T01:08:12.350Z,0
2016-05-29T01:09:10.962Z,0
2016-05-29T01:10:13.995Z,0
2016-05-29T01:11:11.014Z,0
2016-05-29T01:12:23.751Z,0
2016-05-29T01:13:23.847Z,0
2016-05-29T01:14:11.100Z,0
2016-05-29T01:15:11.119Z,0
2016-05-29T01:16:12.575Z,0
2016-05-29T01:17:11.108Z,0
2016-05-29T01:18:12.486Z,0
2016-05-29T01:19:11.192Z,0
2016-05-29T01:20:11.319Z,0
2016-05-29T01:21:11.213Z,0
2016-05-29T01:22:11.247Z,0
2016-05-29T01:23:11.124Z,0
2016-05-29T01:24:11.127Z,0
2016-05-29T01:25:11.349Z,0
2016-05-29T01:26:12.727Z,0
2016-05-29T01:27:11.166Z,0
2016-05-29T01:28:11.435Z,0
2016-05-29T01:29:11.375Z,0
2016-05-29T01:30:11.425Z,0
2016-05-29T01:31:11.412Z,0
2016-05-29T01:32:11.461Z,0
2016-05-29T01:33:12.964Z,0
2016-05-29T01:34:11.482Z,0
2016-05-29T01:35:24.110Z,0
2016-05-29T01:36:12.285Z,0
2016-05-29T01:37:11.662Z,0
2016-05-29T01:38:11.556Z,0
2016-05-29T01:39:11.590Z,0
2016-05-29T01:40:11.436Z,0
2016-05-29T01:41:11.720Z,0
2016-05-29T01:42:20.629Z,0
2016-05-29T01:43:11.787Z,0
2016-05-29T01:44:30.868Z,0
2016-05-29T01:45:14.731Z,0
2016-05-29T01:46:42.859Z,0
2016-05-29T01:47:11.767Z,0
2016-05-29T01:48:11.770Z,0
2016-05-29T01:49:11.631Z,0
2016-05-29T01:50:11.822Z,0
2016-05-29T01:51:24.325Z,0
2016-05-29T01:52:24.639Z,0
2016-05-29T01:53:31.064Z,0
2016-05-29T01:54:31.130Z,0
2016-05-29T01:55:11.929Z,0
2016-05-29T01:56:12.025Z,0
2016-05-29T01:57:14.966Z,0
2016-05-29T01:58:14.999Z,0
2016-05-29T01:59:11.816Z,0
2016-05-29T02:00:12.005Z,0
2016-05-29T02:01:12.024Z,0
2016-05-29T02:02:12.073Z,0
2016-05-29T02:03:12.138Z,0
2016-05-29T02:04:15.110Z,0
2016-05-29T02:05:13.519Z,0
2016-05-29T02:06:24.897Z,0
2016-05-29T02:07:12.211Z,0
2016-05-29T02:08:12.168Z,0
2016-05-29T02:09:12.171Z,0
2016-05-29T02:10:12.079Z,0
2016-05-29T02:11:12.206Z,0
2016-05-29T02:12:12.241Z,0
2016-05-29T02:13:24.837Z,0
2016-05-29T02:14:12.121Z,0
2016-05-29T02:15:12.326Z,0
2016-05-29T02:17:15.489Z,0
2016-05-29T02:18:15.492Z,4
2016-05-29T02:19:15.494Z,4
2016-05-29T02:20:15.403Z,4
2016-05-29T02:21:34.780Z,4
2016-05-29T02:22:15.580Z,0
2016-05-29T02:23:46.927Z,4
2016-05-29T02:24:34.694Z,4
2016-05-29T02:25:15.775Z,4
2016-05-29T02:26:46.794Z,4
2016-05-29T02:27:28.484Z,4
2016-05-29T02:28:15.705Z,4
2016-05-29T02:29:41.286Z,8
2016-05-29T02:30:15.430Z,4
2016-05-29T02:31:15.776Z,8
2016-05-29T02:32:15.638Z,8
2016-05-29T02:33:28.563Z,12
2016-05-29T02:34:15.816Z,8
2016-05-29T02:35:16.224Z,8
2016-05-29T02:36:16.633Z,16
2016-05-29T02:37:15.901Z,12
2016-05-29T02:38:18.920Z,16
2016-05-29T02:39:15.798Z,20
2016-05-29T02:40:28.690Z,24
2016-05-29T02:41:15.976Z,24
2016-05-29T02:42:16.009Z,24
2016-05-29T02:43:15.731Z,28
2016-05-29T02:44:16.045Z,32
2016-05-29T02:45:16.048Z,36
2016-05-29T02:46:16.082Z,36
2016-05-29T02:47:15.944Z,44
2016-05-29T02:48:18.979Z,48
2016-05-29T02:49:16.184Z,56
2016-05-29T02:50:16.500Z,60
2016-05-29T02:51:16.689Z,64
2016-05-29T02:52:16.207Z,72
2016-05-29T02:53:25.508Z,80
2016-05-29T02:54:16.103Z,84
2016-05-29T02:55:17.684Z,96
2016-05-29T02:56:16.280Z,104
2016-05-29T02:57:19.331Z,112
2016-05-29T02:58:29.036Z,124
2016-05-29T02:59:22.601Z,136
2016-05-29T03:00:17.792Z,144
2016-05-29T03:01:19.404Z,160
2016-05-29T03:02:16.375Z,172
2016-05-29T03:03:16.252Z,184
2016-05-29T03:04:17.849Z,204
2016-05-29T03:05:16.305Z,216
2016-05-29T03:06:35.542Z,236
2016-05-29T03:07:29.076Z,256
2016-05-29T03:08:47.798Z,280
2016-05-29T03:09:16.519Z,292
2016-05-29T03:10:16.553Z,316
2016-05-29T03:11:16.259Z,344
2016-05-29T03:12:16.605Z,372
2016-05-29T03:13:16.279Z,400
2016-05-29T03:14:16.626Z,432
2016-05-29T03:15:16.785Z,464
2016-05-29T03:16:29.398Z,504
2016-05-29T03:17:29.415Z,540
2016-05-29T03:18:16.714Z,572
2016-05-29T03:19:16.764Z,608
2016-05-29T03:20:29.736Z,648
2016-05-29T03:21:16.629Z,680
2016-05-29T03:22:16.616Z,716
2016-05-29T03:23:16.807Z,756
2016-05-29T03:24:18.262Z,800
2016-05-29T03:25:17.233Z,840
2016-05-29T03:26:19.893Z,880
2016-05-29T03:27:29.474Z,932
2016-05-29T03:28:17.039Z,956
2016-05-29T03:29:16.760Z,996
2016-05-29T03:30:16.841Z,1032
2016-05-29T03:31:18.219Z,1068
2016-05-29T03:32:29.721Z,1124
2016-05-29T03:33:36.193Z,1192
2016-05-29T03:34:36.227Z,1236
2016-05-29T03:35:17.041Z,1288
2016-05-29T03:36:17.732Z,1336
2016-05-29T03:37:17.094Z,1376
2016-05-29T03:38:29.832Z,1420
2016-05-29T03:39:17.162Z,1448
2016-05-29T03:40:16.977Z,1504
2016-05-29T03:41:17.230Z,1568
2016-05-29T03:42:17.014Z,1632
2016-05-29T03:43:17.048Z,1696
2016-05-29T03:44:17.238Z,1760
2016-05-29T03:45:17.318Z,1828
2016-05-29T03:46:29.837Z,1928
2016-05-29T03:47:20.309Z,1996
2016-05-29T03:48:17.311Z,2076
2016-05-29T03:49:17.314Z,2172
2016-05-29T03:50:17.145Z,2280
2016-05-29T03:51:17.382Z,2372
2016-05-29T03:52:30.197Z,2484
2016-05-29T03:53:30.122Z,2576
2016-05-29T03:54:17.515Z,2640
2016-05-29T03:55:17.283Z,2700
2016-05-29T03:56:17.458Z,2748
2016-05-29T03:57:17.336Z,2836
2016-05-29T03:58:17.510Z,2892
2016-05-29T03:59:17.513Z,2912
2016-05-29T04:00:17.390Z,3044
2016-05-29T04:01:17.566Z,3092
2016-05-29T04:02:17.583Z,3208
2016-05-29T04:03:17.695Z,3356
2016-05-29T04:04:17.464Z,3424
2016-05-29T04:05:19.905Z,3612
2016-05-29T04:06:17.688Z,3756
2016-05-29T04:07:17.690Z,3856
2016-05-29T04:08:17.678Z,3980
2016-05-29T04:09:17.587Z,4192
2016-05-29T04:10:17.745Z,4296
2016-05-29T04:11:19.185Z,4436
2016-05-29T04:12:30.501Z,4600
2016-05-29T04:13:17.816Z,4640
2016-05-29T04:15:20.384Z,4900
2016-05-29T04:15:52.165Z,4900
2016-05-29T04:16:32.981Z,5016
2016-05-29T04:17:33.295Z,5072
2016-05-29T04:18:34.439Z,5140
2016-05-29T04:19:33.239Z,5172
2016-05-29T04:20:46.320Z,5288
2016-05-29T04:21:33.259Z,5200
2016-05-29T04:22:58.781Z,5288
2016-05-29T04:23:36.312Z,5328
2016-05-29T04:25:35.973Z,5700
2016-05-29T04:26:07.710Z,5648
2016-05-29T04:26:48.491Z,5752
2016-05-29T04:28:19.950Z,5604
2016-05-29T04:28:56.390Z,5828
2016-05-29T04:29:48.718Z,5672
2016-05-29T04:31:07.614Z,5332
2016-05-29T04:31:48.614Z,5508
2016-05-29T04:33:51.197Z,4768
2016-05-29T04:34:23.076Z,4692
2016-05-29T04:35:03.907Z,5004
2016-05-29T04:36:05.394Z,5520
2016-05-29T04:37:03.958Z,4868
2016-05-29T04:38:16.710Z,4616
2016-05-29T04:39:16.714Z,4336
2016-05-29T04:40:04.029Z,4308
2016-05-29T04:41:35.313Z,4048
2016-05-29T04:42:23.643Z,4008
2016-05-29T04:43:04.069Z,4108
2016-05-29T04:44:16.837Z,3972
2016-05-29T04:45:04.214Z,4012
2016-05-29T04:46:04.124Z,4480
2016-05-29T04:47:07.189Z,4512
2016-05-29T04:48:07.067Z,4548
2016-05-29T04:49:04.038Z,4644
2016-05-29T04:50:04.056Z,4484
2016-05-29T04:51:07.621Z,4396
2016-05-29T04:52:05.592Z,4292
2016-05-29T04:53:16.861Z,4584
2016-05-29T04:54:23.536Z,4680
2016-05-29T04:55:04.148Z,4652
2016-05-29T04:57:01.497Z,5056
2016-05-29T04:57:15.809Z,5080
2016-05-29T04:59:28.564Z,4852
2016-05-29T05:00:18.458Z,4780
2016-05-29T05:01:41.430Z,4668
2016-05-29T05:02:50.933Z,4608
2016-05-29T05:03:50.935Z,4592
2016-05-29T05:04:28.297Z,4624
2016-05-29T05:06:29.255Z,4744
2016-05-29T05:06:41.896Z,4760
2016-05-29T05:07:41.946Z,4800
2016-05-29T05:08:41.948Z,5148
2016-05-29T05:10:51.547Z,5244
2016-05-29T05:11:45.254Z,5432
2016-05-29T05:12:45.271Z,5616
2016-05-29T05:13:58.027Z,6060
2016-05-29T05:14:46.590Z,6384
2016-05-29T05:16:11.018Z,6984
2016-05-29T05:16:48.393Z,7132
2016-05-29T05:18:49.382Z,7848
2016-05-29T05:19:21.071Z,7936
2016-05-29T05:20:01.761Z,8184
2016-05-29T05:21:22.546Z,8188
2016-05-29T05:22:01.845Z,7912
2016-05-29T05:23:04.989Z,7872
2016-05-29T05:24:14.553Z,7664
2016-05-29T05:25:01.995Z,7668
2016-05-29T05:26:21.247Z,7432
2016-05-29T05:27:05.186Z,7324
2016-05-29T05:28:05.221Z,7052
2016-05-29T05:29:05.317Z,6840
2016-05-29T05:30:17.867Z,6880
2016-05-29T05:31:05.291Z,6924
2016-05-29T05:33:09.313Z,6992
2016-05-29T05:33:34.719Z,7056
2016-05-29T05:34:21.830Z,6904
2016-05-29T05:35:22.068Z,6832
2016-05-29T05:36:22.117Z,7084
2016-05-29T05:37:22.058Z,7536
2016-05-29T05:38:34.904Z,7764
2016-05-29T05:39:21.954Z,8136
2016-05-29T05:40:47.910Z,8348
2016-05-29T05:41:57.368Z,8664
2016-05-29T05:44:46.967Z,8676
2016-05-29T05:45:15.735Z,8596
2016-05-29T05:46:15.738Z,8816
2016-05-29T05:47:34.975Z,8608
2016-05-29T05:48:17.243Z,8452
2016-05-29T05:49:47.121Z,7452
2016-05-29T05:50:30.951Z,7048
2016-05-29T05:51:32.549Z,7076
2016-05-29T05:52:31.145Z,6600
2016-05-29T05:53:31.194Z,6832
2016-05-29T05:54:31.010Z,6208
2016-05-29T05:55:50.387Z,6100
2016-05-29T05:56:43.967Z,5884
2016-05-29T05:58:02.536Z,6676
2016-05-29T05:59:34.258Z,7112
2016-05-29T06:00:33.994Z,7584
2016-05-29T06:01:34.325Z,7428
2016-05-29T06:02:53.546Z,7416
2016-05-29T06:03:34.175Z,7024
2016-05-29T06:05:05.524Z,7424
2016-05-29T06:05:42.117Z,7484
2016-05-29T06:06:34.729Z,7448
2016-05-29T06:07:34.451Z,7660
2016-05-29T06:08:34.328Z,7976
2016-05-29T06:09:37.377Z,8284
2016-05-29T06:10:34.521Z,8808
2016-05-29T06:11:34.524Z,9164
2016-05-29T06:12:34.449Z,8964
2016-05-29T06:13:34.435Z,8636
2016-05-29T06:14:34.610Z,7892
2016-05-29T06:15:34.660Z,7420
2016-05-29T06:16:47.381Z,6740
2016-05-29T06:17:34.774Z,6368
2016-05-29T06:18:34.543Z,6408
2016-05-29T06:19:34.640Z,6284
2016-05-29T06:20:35.345Z,6316
2016-05-29T06:21:34.770Z,6368
2016-05-29T06:22:37.678Z,6272
2016-05-29T06:23:34.697Z,6428
2016-05-29T06:24:40.950Z,6692
2016-05-29T06:25:47.592Z,7124
2016-05-29T06:26:48.517Z,7492
2016-05-29T06:27:35.145Z,7752
2016-05-29T06:28:34.929Z,8096
2016-05-29T06:29:34.806Z,7852
2016-05-29T06:30:34.794Z,7940
2016-05-29T06:31:35.000Z,7976
2016-05-29T06:32:34.987Z,7828
2016-05-29T06:33:35.052Z,7720
2016-05-29T06:34:35.038Z,7720
2016-05-29T06:35:35.292Z,7756
2016-05-29T06:36:35.091Z,7784
2016-05-29T06:37:35.094Z,7672
2016-05-29T06:38:35.127Z,7604
2016-05-29T06:39:47.897Z,7280
2016-05-29T06:40:35.164Z,7180
2016-05-29T06:41:35.276Z,6944
2016-05-29T06:42:35.077Z,6936
2016-05-29T06:43:35.251Z,6836
2016-05-29T06:44:35.315Z,6668
2016-05-29T06:45:35.193Z,6488
2016-05-29T06:46:41.619Z,6176
2016-05-29T06:47:35.168Z,6132
2016-05-29T06:48:35.357Z,6416
2016-05-29T06:49:35.376Z,6400
2016-05-29T06:50:35.550Z,6372
2016-05-29T06:51:35.304Z,6376
2016-05-29T06:52:35.665Z,6564
2016-05-29T06:53:48.215Z,6604
2016-05-29T06:54:35.390Z,6228
2016-05-29T06:55:35.534Z,6788
2016-05-29T06:56:35.379Z,6992
2016-05-29T06:57:35.475Z,6780
2016-05-29T06:58:35.463Z,6316
2016-05-29T06:59:35.590Z,6688
2016-05-29T07:00:35.484Z,6580
2016-05-29T07:01:35.689Z,6488
2016-05-29T07:02:35.677Z,6452
2016-05-29T07:03:35.726Z,6960
2016-05-29T07:04:35.744Z,7052
2016-05-29T07:05:35.903Z,7208
2016-05-29T07:06:35.359Z,7016
2016-05-29T07:07:38.847Z,7068
2016-05-29T07:08:48.552Z,7184
2016-05-29T07:09:35.821Z,7108
2016-05-29T07:10:35.839Z,6572
2016-05-29T07:11:35.872Z,6172
2016-05-29T07:12:35.860Z,6368
2016-05-29T07:13:35.878Z,6184
2016-05-29T07:14:35.959Z,6028
2016-05-29T07:15:35.946Z,6136
2016-05-29T07:16:36.074Z,6076
2016-05-29T07:17:36.013Z,5916
2016-05-29T07:18:55.266Z,5976
2016-05-29T07:19:36.051Z,5880
2016-05-29T07:20:35.929Z,5620
2016-05-29T07:21:37.228Z,5720
2016-05-29T07:22:55.152Z,5448
2016-05-29T07:23:39.139Z,5384
2016-05-29T07:24:36.173Z,5252
2016-05-29T07:26:39.367Z,4996
2016-05-29T07:27:39.275Z,4672
2016-05-29T07:28:39.247Z,5196
2016-05-29T07:29:39.281Z,5656
2016-05-29T07:30:39.439Z,5568
2016-05-29T07:31:39.317Z,5632
2016-05-29T07:32:39.320Z,6240
2016-05-29T07:33:58.701Z,6396
2016-05-29T07:34:39.514Z,5976
2016-05-29T07:36:04.815Z,6072
2016-05-29T07:36:39.847Z,6212
2016-05-29T07:38:42.163Z,6072
2016-05-29T07:39:20.511Z,6200
2016-05-29T07:39:54.855Z,6076
2016-05-29T07:40:54.700Z,5916
2016-05-29T07:41:54.750Z,5220
2016-05-29T07:42:54.940Z,5016
2016-05-29T07:43:55.084Z,4900
2016-05-29T07:44:54.883Z,5192
2016-05-29T07:46:14.186Z,5112
2016-05-29T07:46:54.952Z,5384
2016-05-29T07:49:36.021Z,5300
2016-05-29T07:50:10.149Z,5404
2016-05-29T07:51:41.637Z,5504
2016-05-29T07:52:22.904Z,5888
2016-05-29T07:53:10.579Z,6048
2016-05-29T07:54:23.145Z,5640
2016-05-29T07:55:10.429Z,5676
2016-05-29T07:57:13.012Z,5264
2016-05-29T07:57:51.262Z,5144
2016-05-29T07:58:25.624Z,5024
2016-05-29T07:59:25.767Z,5192
2016-05-29T08:00:25.614Z,5512
2016-05-29T08:01:25.992Z,5556
2016-05-29T08:02:25.807Z,5256
2016-05-29T08:03:25.919Z,5592
2016-05-29T08:04:25.827Z,5536
2016-05-29T08:05:26.439Z,5744
2016-05-29T08:06:26.349Z,5788
2016-05-29T08:07:25.930Z,5872
2016-05-29T08:08:25.916Z,6096
2016-05-29T08:09:38.685Z,6564
2016-05-29T08:10:25.860Z,6128
2016-05-29T08:11:25.988Z,6584
2016-05-29T08:12:26.161Z,7360
2016-05-29T08:13:26.055Z,6732
2016-05-29T08:14:26.073Z,6796
2016-05-29T08:15:26.077Z,6508
2016-05-29T08:16:26.063Z,6180
2016-05-29T08:17:29.159Z,6456
2016-05-29T08:18:25.991Z,6536
2016-05-29T08:19:26.180Z,6904
2016-05-29T08:20:26.230Z,6668
2016-05-29T08:21:26.295Z,6452
2016-05-29T08:22:38.861Z,6420
2016-05-29T08:23:26.254Z,6652
2016-05-29T08:24:26.273Z,6132
2016-05-29T08:25:26.321Z,6108
2016-05-29T08:26:26.153Z,6444
2016-05-29T08:27:26.443Z,7164
2016-05-29T08:28:45.468Z,7048
2016-05-29T08:29:39.181Z,6516
2016-05-29T08:30:45.689Z,6776
2016-05-29T08:31:26.543Z,6980
2016-05-29T08:33:29.142Z,6708
2016-05-29T08:33:41.924Z,6612
2016-05-29T08:34:41.856Z,7624
2016-05-29T08:35:42.008Z,7944
2016-05-29T08:36:42.472Z,7616
2016-05-29T08:37:59.264Z,7204
2016-05-29T08:38:41.811Z,7564
2016-05-29T08:39:42.005Z,7540
2016-05-29T08:40:42.026Z,8080
2016-05-29T08:41:41.828Z,8136
2016-05-29T08:42:42.098Z,8028
2016-05-29T08:43:41.929Z,7416
2016-05-29T08:44:42.121Z,7172
2016-05-29T08:45:43.577Z,7780
2016-05-29T08:46:54.908Z,7484
2016-05-29T08:47:42.192Z,6880
2016-05-29T08:48:54.805Z,6940
2016-05-29T08:49:45.293Z,6588
2016-05-29T08:50:42.577Z,7060
2016-05-29T08:51:42.658Z,6836
2016-05-29T08:52:42.286Z,6712
2016-05-29T08:53:42.336Z,7748
2016-05-29T08:55:01.577Z,7080
2016-05-29T08:55:42.202Z,7252
2016-05-29T08:56:42.220Z,8080
2016-05-29T08:57:43.864Z,7896
2016-05-29T08:58:55.117Z,7680
2016-05-29T08:59:42.572Z,7936
2016-05-29T09:01:08.093Z,8540
2016-05-29T09:01:42.531Z,8620
2016-05-29T09:02:46.471Z,9708
2016-05-29T09:03:42.567Z,9636
2016-05-29T09:04:42.555Z,9268
2016-05-29T09:05:42.400Z,9892
2016-05-29T09:06:55.372Z,9668
2016-05-29T09:07:46.578Z,8756
2016-05-29T09:09:39.599Z,8220
2016-05-29T09:09:52.146Z,8628
2016-05-29T09:10:52.289Z,9200
2016-05-29T09:11:55.213Z,8376
2016-05-29T09:12:54.186Z,8324
2016-05-29T09:13:52.219Z,9084
2016-05-29T09:14:52.457Z,8884
2016-05-29T09:16:05.165Z,9392
2016-05-29T09:17:05.183Z,9124
2016-05-29T09:18:01.045Z,9740
2016-05-29T09:19:18.157Z,10084
2016-05-29T09:19:52.345Z,9664
2016-05-29T09:21:25.741Z,10652
2016-05-29T09:21:52.476Z,10708
2016-05-29T09:22:55.993Z,11008
2016-05-29T09:23:52.621Z,11532
2016-05-29T09:24:52.499Z,11304
2016-05-29T09:25:52.720Z,11192
2016-05-29T09:26:52.645Z,10316
2016-05-29T09:27:56.679Z,11728
2016-05-29T09:28:54.197Z,10996
2016-05-29T09:30:05.562Z,11692
2016-05-29T09:31:05.611Z,11116
2016-05-29T09:31:52.736Z,11312
2016-05-29T09:33:05.945Z,10664
2016-05-29T09:33:52.679Z,9588
2016-05-29T09:34:52.886Z,8704
2016-05-29T09:35:54.716Z,7556
2016-05-29T09:37:05.659Z,7860
2016-05-29T09:37:54.409Z,7048
2016-05-29T09:38:52.927Z,6768
2016-05-29T09:39:52.945Z,6624
2016-05-29T09:40:53.072Z,8036
2016-05-29T09:41:52.825Z,7080
2016-05-29T09:42:57.250Z,6692
2016-05-29T09:43:53.019Z,6816
2016-05-29T09:44:52.896Z,6744
2016-05-29T09:45:53.102Z,7032
2016-05-29T09:46:54.496Z,6764
2016-05-29T09:48:12.344Z,6792
2016-05-29T09:48:53.001Z,6900
2016-05-29T09:49:53.160Z,6144
2016-05-29T09:50:53.319Z,6576
2016-05-29T09:51:53.352Z,6992
2016-05-29T09:53:09.232Z,7204
2016-05-29T09:53:53.373Z,7296
2016-05-29T09:55:12.488Z,7504
2016-05-29T09:56:05.991Z,8104
2016-05-29T09:56:53.163Z,7384
2016-05-29T09:57:55.947Z,7180
2016-05-29T09:58:53.403Z,6664
2016-05-29T09:59:53.249Z,6432
2016-05-29T10:00:53.408Z,6764
2016-05-29T10:01:53.427Z,6772
2016-05-29T10:02:56.226Z,6192
2016-05-29T10:03:53.464Z,7416
2016-05-29T10:04:53.559Z,7132
2016-05-29T10:05:57.046Z,7148
2016-05-29T10:06:53.393Z,7204
2016-05-29T10:07:56.270Z,7760
2016-05-29T10:08:53.570Z,7148
2016-05-29T10:09:59.869Z,7388
2016-05-29T10:10:53.639Z,7248
2016-05-29T10:12:06.409Z,7096
2016-05-29T10:12:56.503Z,7112
2016-05-29T10:13:53.708Z,6728
2016-05-29T10:14:53.571Z,6480
2016-05-29T10:16:06.560Z,7164
2016-05-29T10:17:06.704Z,6148
2016-05-29T10:17:58.391Z,6336
2016-05-29T10:18:53.815Z,5968
2016-05-29T10:19:53.866Z,6252
2016-05-29T10:20:54.868Z,6776
2016-05-29T10:21:53.746Z,5704
2016-05-29T10:23:06.611Z,5748
2016-05-29T10:23:53.768Z,6344
2016-05-29T10:24:53.754Z,7164
2016-05-29T10:25:53.959Z,6972
2016-05-29T10:26:54.057Z,7312
2016-05-29T10:27:58.621Z,7676
2016-05-29T10:28:53.874Z,7648
2016-05-29T10:30:13.286Z,7732
2016-05-29T10:30:54.145Z,7612
2016-05-29T10:31:54.070Z,8012
2016-05-29T10:32:57.541Z,8288
2016-05-29T10:33:54.122Z,8496
2016-05-29T10:35:06.909Z,8080
2016-05-29T10:35:53.893Z,9168
2016-05-29T10:36:54.130Z,9264
2016-05-29T10:37:57.305Z,9032
2016-05-29T10:38:54.260Z,8584
2016-05-29T10:39:54.263Z,9072
2016-05-29T10:40:54.281Z,7952
2016-05-29T10:42:07.052Z,8432
2016-05-29T10:42:59.068Z,10120
2016-05-29T10:43:54.227Z,9324
2016-05-29T10:44:54.370Z,8756
2016-05-29T10:45:54.263Z,8928
2016-05-29T10:46:54.266Z,10532
2016-05-29T10:47:56.613Z,8852
2016-05-29T10:48:54.491Z,7316
2016-05-29T10:49:54.493Z,7636
2016-05-29T10:50:54.511Z,7328
2016-05-29T10:51:54.733Z,7232
2016-05-29T10:52:55.391Z,7072
2016-05-29T10:53:54.551Z,7984
2016-05-29T10:54:54.663Z,8240
2016-05-29T10:55:54.649Z,8596
2016-05-29T10:56:54.637Z,7904
2016-05-29T10:57:58.577Z,7720
2016-05-29T10:58:54.736Z,7592
2016-05-29T10:59:54.598Z,7148
2016-05-29T11:00:54.726Z,6944
2016-05-29T11:01:54.823Z,7804
2016-05-29T11:02:58.012Z,8540
2016-05-29T11:03:54.875Z,8984
2016-05-29T11:04:54.799Z,7176
2016-05-29T11:05:54.551Z,6904
2016-05-29T11:06:55.086Z,8016
2016-05-29T11:07:57.011Z,7880
2016-05-29T11:08:55.106Z,5944
2016-05-29T11:09:55.062Z,7356
2016-05-29T11:10:55.300Z,7084
2016-05-29T11:11:55.208Z,7300
2016-05-29T11:12:58.711Z,6288
2016-05-29T11:13:55.933Z,6764
2016-05-29T11:14:55.497Z,6556
2016-05-29T11:15:55.110Z,6928
2016-05-29T11:16:55.471Z,7356
2016-05-29T11:17:55.162Z,6908
2016-05-29T11:18:55.274Z,7824
2016-05-29T11:19:55.152Z,8496
2016-05-29T11:20:56.138Z,8520
2016-05-29T11:21:54.891Z,9208
2016-05-29T11:22:57.519Z,9696
2016-05-29T11:23:55.241Z,9492
2016-05-29T11:24:55.118Z,9736
2016-05-29T11:25:55.355Z,9872
2016-05-29T11:26:55.295Z,10104
2016-05-29T11:28:05.098Z,10856
2016-05-29T11:28:55.348Z,10768
2016-05-29T11:29:55.397Z,10404
2016-05-29T11:30:55.401Z,10216
2016-05-29T11:31:55.418Z,10952
2016-05-29T11:32:58.218Z,10236
2016-05-29T11:33:55.455Z,10520
2016-05-29T11:34:55.333Z,12684
2016-05-29T11:35:55.882Z,12896
2016-05-29T11:36:55.573Z,14524
2016-05-29T11:37:58.356Z,15736
2016-05-29T11:38:55.625Z,14296
2016-05-29T11:39:55.596Z,15224
2016-05-29T11:40:55.600Z,13340
2016-05-29T11:41:55.633Z,14468
2016-05-29T11:42:58.558Z,14212
2016-05-29T11:43:55.669Z,11184
2016-05-29T11:45:01.969Z,12844
2016-05-29T11:45:55.597Z,14304
2016-05-29T11:46:55.755Z,15936
2016-05-29T11:47:58.789Z,16832
2016-05-29T11:48:55.652Z,12620
2016-05-29T11:49:55.857Z,10512
2016-05-29T11:50:56.313Z,9592
2016-05-29T11:51:55.894Z,8652
2016-05-29T11:52:57.240Z,10280
2016-05-29T11:53:55.790Z,10528
2016-05-29T11:54:55.933Z,12040
2016-05-29T11:56:08.548Z,10604
2016-05-29T11:56:55.985Z,10388
2016-05-29T11:58:21.679Z,8688
2016-05-29T11:58:56.023Z,8060
2016-05-29T11:59:56.071Z,8808
2016-05-29T12:00:56.184Z,8932
2016-05-29T12:01:56.077Z,8692
2016-05-29T12:03:15.161Z,8576
2016-05-29T12:03:55.989Z,7908
2016-05-29T12:05:21.995Z,7916
2016-05-29T12:05:56.838Z,8300
2016-05-29T12:06:56.215Z,7432
2016-05-29T12:07:57.672Z,8632
2016-05-29T12:08:56.284Z,8348
2016-05-29T12:09:56.302Z,7716
2016-05-29T12:10:56.336Z,7560
2016-05-29T12:11:56.354Z,9132
2016-05-29T12:12:57.731Z,11068
2016-05-29T12:13:56.438Z,10932
2016-05-29T12:14:56.425Z,10384
2016-05-29T12:15:56.444Z,9912
2016-05-29T12:16:56.446Z,9788
2016-05-29T12:17:59.902Z,8536
2016-05-29T12:19:15.563Z,7376
2016-05-29T12:20:02.625Z,6864
2016-05-29T12:21:28.631Z,6616
2016-05-29T12:22:15.696Z,6096
2016-05-29T12:23:56.761Z,4660
2016-05-29T12:24:56.529Z,4476
2016-05-29T12:25:56.783Z,4668
2016-05-29T12:26:56.973Z,4860
2016-05-29T12:27:57.646Z,5000
2016-05-29T12:28:56.962Z,5060
2016-05-29T12:29:56.574Z,5528
2016-05-29T12:30:56.921Z,5848
2016-05-29T12:31:56.783Z,5164
2016-05-29T12:32:56.879Z,4472
2016-05-29T12:33:59.959Z,4740
2016-05-29T12:34:56.853Z,4324
2016-05-29T12:35:58.169Z,3780
2016-05-29T12:37:09.487Z,4164
2016-05-29T12:37:59.971Z,4388
2016-05-29T12:39:16.148Z,3996
2016-05-29T12:39:56.851Z,3356
2016-05-29T12:41:59.560Z,3188
2016-05-29T12:42:31.469Z,3064
2016-05-29T12:43:15.236Z,2664
2016-05-29T12:44:12.427Z,2856
2016-05-29T12:45:12.352Z,2684
2016-05-29T12:46:12.464Z,2596
2016-05-29T12:47:31.575Z,2456
2016-05-29T12:48:12.453Z,2472
2016-05-29T12:49:12.394Z,2604
2016-05-29T12:50:12.444Z,2608
2016-05-29T12:51:12.305Z,2372
2016-05-29T12:52:12.480Z,1876
2016-05-29T12:53:12.326Z,2232
2016-05-29T12:54:12.502Z,2372
2016-05-29T12:55:12.582Z,3068
2016-05-29T12:56:12.554Z,3724
2016-05-29T12:57:12.837Z,4184
2016-05-29T12:58:12.605Z,5204
2016-05-29T12:59:12.655Z,6160
2016-05-29T13:00:12.658Z,7860
2016-05-29T13:01:12.551Z,6544
2016-05-29T13:02:12.709Z,6680
2016-05-29T13:03:12.603Z,6240
2016-05-29T13:04:12.871Z,6796
2016-05-29T13:05:12.906Z,7104
2016-05-29T13:06:13.784Z,7728
2016-05-29T13:07:12.926Z,9304
2016-05-29T13:08:12.914Z,8124
2016-05-29T13:09:12.932Z,11896
2016-05-29T13:10:12.575Z,9080
2016-05-29T13:11:12.937Z,10624
2016-05-29T13:12:12.877Z,13124
2016-05-29T13:13:12.771Z,12896
2016-05-29T13:14:12.992Z,16352
2016-05-29T13:15:12.980Z,12272
2016-05-29T13:16:12.997Z,12456
2016-05-29T13:17:13.000Z,12212
2016-05-29T13:18:13.034Z,11916
2016-05-29T13:19:13.130Z,14120
2016-05-29T13:20:12.946Z,11780
2016-05-29T13:21:13.152Z,13212
2016-05-29T13:22:12.858Z,12572
2016-05-29T13:23:13.032Z,12324
2016-05-29T13:24:12.847Z,12456
2016-05-29T13:25:13.257Z,13404
2016-05-29T13:26:13.227Z,13728
2016-05-29T13:27:13.246Z,12356
2016-05-29T13:28:13.233Z,14804
2016-05-29T13:29:13.267Z,17088
2016-05-29T13:30:13.348Z,16352
2016-05-29T13:31:13.179Z,16192
2016-05-29T13:32:13.432Z,14976
2016-05-29T13:33:32.653Z,14692
2016-05-29T13:34:26.187Z,13008
2016-05-29T13:35:44.565Z,16416
2016-05-29T13:36:14.036Z,14804
2016-05-29T13:37:13.476Z,13724
2016-05-29T13:38:16.509Z,12328
2016-05-29T13:39:13.513Z,9492
2016-05-29T13:40:26.172Z,9624
2016-05-29T13:41:13.550Z,9492
2016-05-29T13:42:39.083Z,7644
2016-05-29T13:43:22.742Z,7660
2016-05-29T13:44:23.386Z,6968
2016-05-29T13:45:35.889Z,6716
2016-05-29T13:46:22.828Z,6880
2016-05-29T13:47:23.158Z,7600